Time;durP1;ratioP1;P1;durP2;ratioP2;P2;SDS_P1;SDS_P2;PMS_P1;PMS_P2;Temp;Humidity;BMP_temperature;BMP_pressure;BME280_temperature;BME280_humidity;BME280_pressure;Samples;Min_cycle;Max_cycle;Signal;HPM_P1;HPM_P2
2023/08/19 07:30:55;;;;;;;;;;;;;;;25.16;59.46;99794.94;1086618;54;21234;-85
2023/08/19 07:31:56;;;;;;;;;;;;;;;25.33;59.34;99789.50;1088793;46;20041;-87
2023/08/19 07:34:29;;;;;;;;;;;;;;;25.57;58.20;99792.91;1087242;46;19942;-88
2023/08/19 07:35:36;;;;;;;;;;;;;;;25.66;58.27;99788.66;1087554;46;19965;-86
2023/08/19 07:36:54;;;;;;;;;;;;;;;25.67;57.34;99784.84;1087307;54;19942;-86
2023/08/19 07:39:34;;;;;;;;;;;;;;;25.95;55.90;99788.53;1087330;46;19961;-87
2023/08/19 07:40:36;;;;;;;;;;;;;;;26.02;56.39;99791.09;1087161;54;19943;-85
2023/08/19 07:41:40;;;;;;;;;;;;;;;26.15;56.04;99789.91;1086880;54;19942;-87
2023/08/19 07:50:12;;;;;;;;;;;;;;;27.17;53.96;99775.63;1086824;54;19942;-85
2023/08/19 07:51:17;;;;;;;;;;;;;;;27.34;53.36;99774.66;1086903;47;19950;-86
2023/08/19 07:52:26;;;;;;;;;;;;;;;27.47;53.21;99787.13;1086878;47;19939;-87
2023/08/19 07:55:18;;;;;;;;;;;;;;;27.86;52.05;99779.44;1087708;39;20632;-85
2023/08/19 07:56:19;;;;;;;;;;;;;;;28.04;51.88;99780.06;1086877;47;19967;-84
2023/08/19 08:00:59;;;;;;;;;;;;;;;28.43;50.70;99787.94;1088750;54;19942;-87
2023/08/19 08:02:52;;;;;;;;;;;;;;;28.57;50.26;99776.41;1088904;46;19939;-84
2023/08/19 08:06:11;;;;;;;;;;;;;;;28.92;49.16;99783.09;1088857;54;19931;-85
2023/08/19 08:07:16;;;;;;;;;;;;;;;28.99;49.22;99789.16;1088897;54;19948;-84
2023/08/19 08:08:19;;;;;;;;;;;;;;;29.13;48.77;99786.69;1088663;47;20017;-85
2023/08/19 08:09:21;;;;;;;;;;;;;;;29.23;48.38;99781.19;1088718;54;19943;-84
2023/08/19 08:10:25;;;;;;;;;;;;;;;29.35;47.87;99786.44;1089229;46;20027;-82
2023/08/19 08:11:26;;;;;;;;;;;;;;;29.43;47.79;99787.78;1088809;54;19950;-85
2023/08/19 08:12:30;;;;;;;;;;;;;;;29.59;46.79;99785.84;1088807;54;19954;-84
2023/08/19 08:13:31;;;;;;;;;;;;;;;29.61;46.96;99782.84;1088780;54;19950;-85
2023/08/19 08:14:35;;;;;;;;;;;;;;;29.71;46.63;99783.63;1088730;54;19943;-86
2023/08/19 08:15:36;;;;;;;;;;;;;;;29.80;46.80;99778.38;1088805;47;19963;-83
2023/08/19 08:16:41;;;;;;;;;;;;;;;29.94;46.62;99781.41;1088608;47;19938;-85
2023/08/19 08:17:42;;;;;;;;;;;;;;;29.85;46.11;99783.88;1088693;46;20962;-83
2023/08/19 08:18:45;;;;;;;;;;;;;;;29.91;46.65;99784.69;1088735;54;19980;-85
2023/08/19 08:19:46;;;;;;;;;;;;;;;30.07;46.00;99774.47;1088586;47;19930;-85
2023/08/19 08:22:10;;;;;;;;;;;;;;;29.97;44.53;99777.25;1089430;38;20682;-84
2023/08/19 08:23:35;;;;;;;;;;;;;;;29.83;44.55;99779.75;1088638;47;19943;-84
2023/08/19 08:24:38;;;;;;;;;;;;;;;29.94;44.39;99784.16;1092056;38;21257;-85
2023/08/19 08:25:45;;;;;;;;;;;;;;;30.15;44.59;99778.53;1091226;38;20241;-84
2023/08/19 08:26:49;;;;;;;;;;;;;;;30.34;44.20;99771.28;1088752;54;20029;-85
2023/08/19 08:27:55;;;;;;;;;;;;;;;30.55;44.38;99779.47;1088621;46;20944;-84
2023/08/19 08:38:37;;;;;;;;;;;;;;;31.48;42.50;99751.16;1089160;54;19939;-84
2023/08/19 08:39:44;;;;;;;;;;;;;;;31.54;42.21;99761.06;1088756;46;19939;-83
2023/08/19 08:40:50;;;;;;;;;;;;;;;31.58;41.85;99755.78;1089242;54;19943;-87
2023/08/19 08:43:03;;;;;;;;;;;;;;;31.85;41.34;99759.91;1089590;54;19915;-86
2023/08/19 08:46:44;;;;;;;;;;;;;;;32.08;40.69;99769.31;1081610;54;19946;-86
2023/08/19 08:47:47;;;;;;;;;;;;;;;32.18;39.76;99763.66;1081279;47;19956;31
2023/08/19 08:49:56;;;;;;;;;;;;;;;32.51;39.34;99761.00;1089730;54;19950;-86
2023/08/19 08:51:01;;;;;;;;;;;;;;;32.57;38.93;99760.94;1084366;38;20288;31
2023/08/19 08:53:23;;;;;;;;;;;;;;;32.70;38.22;99765.72;1089524;54;19935;-87
2023/08/19 08:54:36;;;;;;;;;;;;;;;32.77;36.38;99752.34;1086479;54;19943;-87
2023/08/19 08:56:47;;;;;;;;;;;;;;;33.11;36.53;99761.50;1089183;54;19934;-86
2023/08/19 09:02:00;;;;;;;;;;;;;;;33.34;35.72;99754.22;1089561;54;19939;-87
2023/08/19 09:03:03;;;;;;;;;;;;;;;33.40;36.02;99764.06;1091912;38;20846;-86
2023/08/19 09:04:07;;;;;;;;;;;;;;;33.48;35.83;99764.47;1089016;46;19939;-84
2023/08/19 09:05:09;;;;;;;;;;;;;;;33.51;34.96;99758.34;1089396;54;19927;-85
2023/08/19 09:06:17;;;;;;;;;;;;;;;33.48;35.34;99759.78;1088951;46;19938;-85
2023/08/19 09:07:21;;;;;;;;;;;;;;;33.63;35.36;99761.41;1089002;54;19947;-84
2023/08/19 09:08:27;;;;;;;;;;;;;;;33.74;35.10;99754.53;1089024;46;20865;-83
2023/08/19 09:09:30;;;;;;;;;;;;;;;33.82;34.62;99758.56;1088724;46;19938;-83
2023/08/19 09:10:50;;;;;;;;;;;;;;;33.96;34.88;99753.03;1087450;47;19939;-87
2023/08/19 09:12:12;;;;;;;;;;;;;;;34.02;34.82;99762.88;1087622;47;19942;-86
2023/08/19 09:13:22;;;;;;;;;;;;;;;34.03;34.90;99758.97;1087248;47;20876;-85
2023/08/19 09:14:26;;;;;;;;;;;;;;;33.73;34.96;99761.22;1087904;47;20651;-87
2023/08/19 09:15:35;;;;;;;;;;;;;;;33.97;34.89;99754.69;1087780;46;19950;-86
2023/08/19 09:16:41;;;;;;;;;;;;;;;34.11;34.40;99764.91;1087143;47;19938;-84
2023/08/19 09:17:46;;;;;;;;;;;;;;;34.14;33.97;99762.38;1088128;39;20886;-85
2023/08/19 09:18:47;;;;;;;;;;;;;;;34.17;33.88;99763.69;1087643;54;19931;-85
2023/08/19 09:19:53;;;;;;;;;;;;;;;34.21;34.33;99764.69;1087263;47;19963;-84
2023/08/19 09:22:23;;;;;;;;;;;;;;;34.42;34.44;99758.75;1087782;54;19942;-86
2023/08/19 09:23:32;;;;;;;;;;;;;;;34.57;34.24;99761.19;1084671;46;19966;-86
2023/08/19 09:24:38;;;;;;;;;;;;;;;34.62;33.26;99765.78;1089971;39;21141;-86
2023/08/19 09:25:41;;;;;;;;;;;;;;;34.77;33.93;99764.56;1087380;46;19956;-86
2023/08/19 09:51:03;;;;;;;;;;;;;;;34.98;33.44;99770.50;1086728;54;19995;-83
2023/08/19 10:05:42;;;;;;;;;;;;;;;35.81;31.48;99758.03;1087161;54;19935;-83
2023/08/19 10:06:47;;;;;;;;;;;;;;;35.64;31.56;99763.53;1086991;47;19970;-85
2023/08/19 10:07:58;;;;;;;;;;;;;;;35.82;31.64;99767.22;1087074;47;19951;-86
2023/08/19 10:09:02;;;;;;;;;;;;;;;36.03;31.20;99761.91;1087179;47;19966;-84
2023/08/19 10:11:09;;;;;;;;;;;;;;;36.06;30.32;99759.28;1087239;54;19935;-85
2023/08/19 10:12:15;;;;;;;;;;;;;;;35.96;30.43;99769.91;1087485;47;20039;-86
2023/08/19 10:13:19;;;;;;;;;;;;;;;35.94;30.68;99761.88;1088228;39;21131;-85
2023/08/19 10:14:25;;;;;;;;;;;;;;;35.91;30.73;99768.06;1087672;54;19950;-85
2023/08/19 10:15:29;;;;;;;;;;;;;;;35.60;30.98;99761.41;1087544;47;19949;-82
2023/08/19 10:17:39;;;;;;;;;;;;;;;35.50;30.70;99758.06;1077973;54;20021;31
2023/08/19 10:19:58;;;;;;;;;;;;;;;35.53;30.86;99763.00;1087716;54;19942;-84
2023/08/19 10:21:04;;;;;;;;;;;;;;;35.74;30.44;99763.25;1087391;46;19962;-85
2023/08/19 10:22:10;;;;;;;;;;;;;;;35.44;30.47;99765.72;1087297;47;19974;-85
2023/08/19 10:25:03;;;;;;;;;;;;;;;36.00;30.48;99749.47;1087124;54;19939;-87
2023/08/19 10:26:04;;;;;;;;;;;;;;;36.10;30.07;99753.88;1087341;54;19943;-85
2023/08/19 10:29:27;;;;;;;;;;;;;;;35.94;30.35;99767.44;1080407;54;20350;-86
2023/08/19 10:30:31;;;;;;;;;;;;;;;35.96;30.41;99764.34;1088305;54;19942;-90
2023/08/19 10:33:56;;;;;;;;;;;;;;;36.63;29.42;99759.56;1083833;54;21158;31
2023/08/19 10:36:09;;;;;;;;;;;;;;;36.76;29.55;99743.81;1090304;39;20890;-85
2023/08/19 10:37:13;;;;;;;;;;;;;;;36.56;29.31;99759.22;1087370;46;21080;-85
2023/08/19 10:39:22;;;;;;;;;;;;;;;36.51;29.21;99752.66;1085167;54;19966;31
2023/08/19 10:40:24;;;;;;;;;;;;;;;36.17;28.81;99750.63;1088203;39;20835;-86
2023/08/19 10:41:25;;;;;;;;;;;;;;;36.21;28.83;99752.44;1087660;46;20700;-86
2023/08/19 10:43:48;;;;;;;;;;;;;;;36.45;28.70;99751.19;1086542;54;20002;31
2023/08/19 10:44:54;;;;;;;;;;;;;;;36.63;28.32;99749.22;1098775;31;20892;-88
2023/08/19 10:48:11;;;;;;;;;;;;;;;36.79;28.21;99746.75;1087690;39;21068;-86
2023/08/19 10:49:13;;;;;;;;;;;;;;;36.90;27.33;99740.88;1077658;46;19946;-86
2023/08/19 10:51:43;;;;;;;;;;;;;;;37.01;27.63;99739.41;1083745;54;19946;-87
2023/08/19 10:56:14;;;;;;;;;;;;;;;37.26;26.39;99736.88;1087486;54;19946;-82
2023/08/19 10:57:17;;;;;;;;;;;;;;;37.24;26.30;99733.59;1087498;54;19999;-83
2023/08/19 10:58:20;;;;;;;;;;;;;;;37.27;26.33;99732.94;1087500;54;19942;-81
2023/08/19 10:59:21;;;;;;;;;;;;;;;37.30;26.53;99732.28;1087425;54;19966;-82
2023/08/19 11:00:25;;;;;;;;;;;;;;;37.29;26.69;99733.44;1088483;39;20649;-83
2023/08/19 11:01:29;;;;;;;;;;;;;;;37.23;26.26;99734.75;1088952;39;20600;-83
2023/08/19 11:02:32;;;;;;;;;;;;;;;37.21;26.10;99739.84;1087147;47;19939;-84
2023/08/19 11:03:33;;;;;;;;;;;;;;;37.18;26.59;99734.94;1087193;47;19942;-82
2023/08/19 11:04:34;;;;;;;;;;;;;;;36.84;27.04;99741.00;1087228;54;19966;-83
2023/08/19 11:05:37;;;;;;;;;;;;;;;36.90;27.52;99743.66;1087094;47;19943;-82
2023/08/19 11:06:39;;;;;;;;;;;;;;;36.52;27.50;99740.41;1087195;54;19987;-83
2023/08/19 11:07:47;;;;;;;;;;;;;;;36.52;28.01;99745.97;1087075;47;19962;-81
2023/08/19 11:08:48;;;;;;;;;;;;;;;36.58;28.22;99743.84;1087054;47;19938;-82
2023/08/19 11:09:52;;;;;;;;;;;;;;;36.45;27.10;99742.03;1087083;47;19961;-84
2023/08/19 11:10:53;;;;;;;;;;;;;;;36.13;27.78;99753.25;1087087;54;20699;-82
2023/08/19 11:12:00;;;;;;;;;;;;;;;35.91;27.72;99746.66;1086944;46;19943;-83
2023/08/19 11:13:01;;;;;;;;;;;;;;;35.61;28.71;99746.34;1086949;46;19946;-81
2023/08/19 11:14:04;;;;;;;;;;;;;;;35.73;28.83;99750.47;1087019;47;19939;-83
2023/08/19 11:15:06;;;;;;;;;;;;;;;35.79;28.10;99752.00;1087039;47;19938;-81
2023/08/19 11:16:09;;;;;;;;;;;;;;;35.89;28.10;99754.47;1086990;47;19939;-84
2023/08/19 11:17:10;;;;;;;;;;;;;;;35.79;27.48;99754.78;1087019;54;19993;-81
2023/08/19 11:18:21;;;;;;;;;;;;;;;35.86;27.61;99749.56;1086997;46;19962;-85
2023/08/19 11:19:22;;;;;;;;;;;;;;;35.67;27.64;99747.03;1086983;54;20056;-83
2023/08/19 11:20:29;;;;;;;;;;;;;;;35.83;27.75;99744.63;1088521;39;20717;-82
2023/08/19 11:21:31;;;;;;;;;;;;;;;35.73;27.87;99756.03;1086972;54;19942;-81
2023/08/19 11:22:42;;;;;;;;;;;;;;;35.74;28.19;99755.75;1086988;47;19982;-81
2023/08/19 11:23:43;;;;;;;;;;;;;;;35.87;28.03;99751.19;1087024;46;19939;-83
2023/08/19 11:24:46;;;;;;;;;;;;;;;35.88;28.06;99750.06;1086968;54;19957;-84
2023/08/19 11:25:47;;;;;;;;;;;;;;;35.57;28.23;99750.09;1090082;39;20729;-82
2023/08/19 11:26:51;;;;;;;;;;;;;;;35.58;28.26;99751.72;1086922;47;19962;-83
2023/08/19 11:27:54;;;;;;;;;;;;;;;35.55;28.24;99755.97;1086946;54;21244;-81
2023/08/19 11:28:58;;;;;;;;;;;;;;;35.30;28.66;99749.94;1089139;39;20881;-83
2023/08/19 11:29:59;;;;;;;;;;;;;;;35.40;28.29;99753.59;1087018;54;19950;-82
2023/08/19 11:31:04;;;;;;;;;;;;;;;35.40;28.24;99754.41;1086984;47;19963;-81
2023/08/19 11:32:05;;;;;;;;;;;;;;;35.29;28.15;99742.75;1087008;54;19943;-84
2023/08/19 11:33:10;;;;;;;;;;;;;;;35.44;28.40;99749.06;1086779;47;19974;-82
2023/08/19 11:34:12;;;;;;;;;;;;;;;35.51;28.08;99754.16;1087051;47;20003;-82
2023/08/19 11:35:16;;;;;;;;;;;;;;;35.57;28.03;99750.94;1086971;46;20721;-81
2023/08/19 11:36:17;;;;;;;;;;;;;;;35.69;27.91;99743.94;1087035;54;19943;-84
2023/08/19 11:37:20;;;;;;;;;;;;;;;35.72;27.75;99743.28;1087080;54;20027;-85
2023/08/19 11:38:21;;;;;;;;;;;;;;;35.75;27.96;99745.44;1086939;47;19938;-84
2023/08/19 11:39:24;;;;;;;;;;;;;;;35.79;28.05;99753.94;1088450;39;20582;-84
2023/08/19 11:40:31;;;;;;;;;;;;;;;35.82;28.02;99745.78;1087032;54;19967;-85
2023/08/19 11:41:35;;;;;;;;;;;;;;;35.89;28.13;99748.09;1089485;39;20795;-85
2023/08/19 11:42:36;;;;;;;;;;;;;;;35.93;28.12;99746.34;1086983;54;19954;-83
2023/08/19 11:43:48;;;;;;;;;;;;;;;35.86;28.19;99735.66;1086781;47;19938;-82
2023/08/19 11:44:49;;;;;;;;;;;;;;;35.94;27.64;99739.66;1087037;54;20730;-84
2023/08/19 11:45:52;;;;;;;;;;;;;;;35.90;27.82;99741.38;1087100;54;19942;-82
2023/08/19 11:46:54;;;;;;;;;;;;;;;35.86;28.35;99740.38;1086800;47;19939;-83
2023/08/19 11:47:58;;;;;;;;;;;;;;;35.95;28.39;99740.44;1087009;47;19950;-83
2023/08/19 11:48:59;;;;;;;;;;;;;;;36.00;29.09;99748.63;1086957;47;19943;-83
2023/08/19 11:50:03;;;;;;;;;;;;;;;35.98;28.75;99746.19;1086932;54;20855;-83
2023/08/19 11:51:08;;;;;;;;;;;;;;;35.99;28.92;99749.78;1086910;54;19942;-82
2023/08/19 11:52:11;;;;;;;;;;;;;;;36.06;28.47;99750.13;1087338;39;20901;-84
2023/08/19 11:53:20;;;;;;;;;;;;;;;36.02;28.22;99752.75;1086950;47;19938;-82
2023/08/19 11:54:24;;;;;;;;;;;;;;;36.15;28.49;99750.97;1086955;47;19938;-82
2023/08/19 11:55:26;;;;;;;;;;;;;;;36.17;28.07;99751.47;1087104;39;20952;-83
2023/08/19 11:56:29;;;;;;;;;;;;;;;35.98;28.59;99751.75;1086357;47;21503;-82
2023/08/19 11:57:33;;;;;;;;;;;;;;;36.06;28.63;99750.13;1087001;54;19943;-83
2023/08/19 11:58:40;;;;;;;;;;;;;;;35.94;28.75;99752.72;1086978;54;19947;-82
2023/08/19 11:59:44;;;;;;;;;;;;;;;35.69;28.66;99749.50;1086837;47;19939;-81
2023/08/19 12:00:47;;;;;;;;;;;;;;;35.69;28.84;99755.06;1086909;54;19973;-83
2023/08/19 12:01:48;;;;;;;;;;;;;;;35.52;29.20;99764.13;1088445;31;20805;-84
2023/08/19 12:02:51;;;;;;;;;;;;;;;35.42;28.95;99756.91;1086947;47;19939;-83
2023/08/19 12:03:52;;;;;;;;;;;;;;;35.38;29.01;99755.88;1088713;39;20266;-82
2023/08/19 12:04:56;;;;;;;;;;;;;;;35.43;28.90;99758.53;1086894;54;19943;-82
2023/08/19 12:05:57;;;;;;;;;;;;;;;35.53;28.77;99761.03;1086859;47;20878;-82
2023/08/19 12:07:05;;;;;;;;;;;;;;;35.59;28.78;99757.00;1086872;54;19965;-83
2023/08/19 12:08:11;;;;;;;;;;;;;;;35.60;28.73;99764.19;1086795;54;19946;-83
2023/08/19 12:09:15;;;;;;;;;;;;;;;35.61;28.80;99765.00;1086858;54;20755;-82
2023/08/19 12:10:15;;;;;;;;;;;;;;;35.41;29.33;99760.81;1086862;47;19939;-81
2023/08/19 12:11:25;;;;;;;;;;;;;;;35.47;29.28;99759.53;1086913;47;20825;-83
2023/08/19 12:12:26;;;;;;;;;;;;;;;35.18;29.58;99755.28;1086990;54;19950;-82
2023/08/19 12:13:27;;;;;;;;;;;;;;;35.32;29.83;99757.16;1086892;54;19950;-83
2023/08/19 12:14:46;;;;;;;;;;;;;;;35.44;29.83;99757.38;1086766;47;19939;-84
2023/08/19 12:15:49;;;;;;;;;;;;;;;35.57;29.51;99769.53;1086746;54;19967;-82
2023/08/19 12:16:53;;;;;;;;;;;;;;;35.60;29.74;99764.19;1089396;39;20600;-83
2023/08/19 12:17:54;;;;;;;;;;;;;;;35.53;29.34;99763.81;1086840;47;20029;-83
2023/08/19 12:18:54;;;;;;;;;;;;;;;35.57;29.23;99769.53;1086888;54;19943;-83
2023/08/19 12:19:58;;;;;;;;;;;;;;;35.47;29.28;99773.44;1086717;54;19942;-83
2023/08/19 12:20:59;;;;;;;;;;;;;;;35.56;28.68;99765.97;1086658;47;19964;-82
2023/08/19 12:22:03;;;;;;;;;;;;;;;35.57;28.75;99775.94;1086721;54;19973;-83
2023/08/19 12:23:04;;;;;;;;;;;;;;;35.70;28.77;99771.41;1086851;47;19939;-84
2023/08/19 12:24:08;;;;;;;;;;;;;;;35.49;28.82;99768.38;1086796;54;19942;-84
2023/08/19 12:25:09;;;;;;;;;;;;;;;35.51;28.92;99774.44;1086743;47;20838;-83
2023/08/19 12:26:12;;;;;;;;;;;;;;;35.53;28.96;99779.69;1086781;47;19942;-84
2023/08/19 12:27:13;;;;;;;;;;;;;;;35.60;28.67;99774.47;1087825;39;20808;-84
2023/08/19 12:28:17;;;;;;;;;;;;;;;35.70;28.58;99778.94;1086899;54;19942;-84
2023/08/19 12:29:18;;;;;;;;;;;;;;;35.75;28.33;99776.84;1086534;47;19950;-84
2023/08/19 12:30:21;;;;;;;;;;;;;;;35.53;28.73;99774.91;1086547;54;19950;-83
2023/08/19 12:31:26;;;;;;;;;;;;;;;35.66;28.61;99777.94;1086659;54;19942;-83
2023/08/19 12:32:30;;;;;;;;;;;;;;;35.66;28.77;99773.19;1086985;47;19938;-83
2023/08/19 12:33:31;;;;;;;;;;;;;;;35.67;28.94;99779.56;1086794;47;19969;-82
2023/08/19 12:34:34;;;;;;;;;;;;;;;35.64;30.00;99774.66;1086885;54;19949;-82
2023/08/19 12:35:35;;;;;;;;;;;;;;;35.44;29.33;99771.28;1086891;54;19942;-83
2023/08/19 12:36:38;;;;;;;;;;;;;;;35.40;30.07;99781.38;1086748;47;19943;-83
2023/08/19 12:37:39;;;;;;;;;;;;;;;35.41;29.95;99781.09;1086956;47;19964;-82
2023/08/19 12:38:43;;;;;;;;;;;;;;;35.50;30.05;99775.59;1086736;47;19964;-83
2023/08/19 12:39:44;;;;;;;;;;;;;;;35.38;29.63;99783.66;1086709;47;19939;-83
2023/08/19 12:42:13;;;;;;;;;;;;;;;35.66;29.78;99778.72;1086761;47;20019;-82
2023/08/19 12:43:15;;;;;;;;;;;;;;;35.67;29.14;99785.13;1086760;54;19991;-83
2023/08/19 12:44:21;;;;;;;;;;;;;;;35.68;29.20;99787.59;1086808;47;20575;-82
2023/08/19 12:45:22;;;;;;;;;;;;;;;35.73;29.45;99783.84;1087014;47;19964;-83
2023/08/19 12:46:35;;;;;;;;;;;;;;;35.66;29.07;99783.50;1087037;47;19938;-83
2023/08/19 12:47:38;;;;;;;;;;;;;;;35.47;29.29;99776.22;1087177;54;20007;-83
2023/08/19 12:48:41;;;;;;;;;;;;;;;35.41;29.93;99785.84;1088580;39;20365;-84
2023/08/19 12:49:42;;;;;;;;;;;;;;;35.54;29.54;99787.69;1087212;54;19949;-83
2023/08/19 12:50:45;;;;;;;;;;;;;;;35.57;29.87;99787.06;1087209;47;19959;-83
2023/08/19 12:51:46;;;;;;;;;;;;;;;35.54;29.73;99787.69;1086996;47;19950;-83
2023/08/19 12:52:47;;;;;;;;;;;;;;;35.39;29.41;99788.06;1087166;54;19943;-84
2023/08/19 12:53:51;;;;;;;;;;;;;;;35.44;29.22;99791.56;1086984;47;19939;-84
2023/08/19 12:54:52;;;;;;;;;;;;;;;35.59;29.29;99795.06;1087095;47;19946;-84
2023/08/19 12:55:55;;;;;;;;;;;;;;;35.64;29.13;99796.88;1087171;54;19954;-85
2023/08/19 12:56:57;;;;;;;;;;;;;;;35.60;29.29;99791.16;1086677;47;19939;-82
2023/08/19 12:58:00;;;;;;;;;;;;;;;35.43;29.55;99791.88;1087149;54;19943;-84
2023/08/19 12:59:01;;;;;;;;;;;;;;;35.30;29.96;99802.72;1087246;54;19943;-83
2023/08/19 13:00:05;;;;;;;;;;;;;;;35.10;30.35;99804.06;1087134;54;19973;-85
2023/08/19 13:01:06;;;;;;;;;;;;;;;34.77;30.62;99807.03;1087109;47;19955;-83
2023/08/19 13:02:12;;;;;;;;;;;;;;;34.73;30.76;99803.25;1087156;47;19942;-83
2023/08/19 13:03:13;;;;;;;;;;;;;;;34.70;30.81;99808.59;1087162;47;19942;-83
2023/08/19 13:04:14;;;;;;;;;;;;;;;34.81;30.65;99810.00;1087166;54;19934;-85
2023/08/19 13:05:17;;;;;;;;;;;;;;;34.63;30.26;99809.88;1087133;47;19938;-82
2023/08/19 13:06:18;;;;;;;;;;;;;;;34.45;30.42;99817.19;1087192;54;19938;-84
2023/08/19 13:07:21;;;;;;;;;;;;;;;34.37;30.42;99826.22;1087162;54;19943;-84
2023/08/19 13:08:22;;;;;;;;;;;;;;;34.47;29.84;99814.94;1087071;47;20003;-84
2023/08/19 13:09:25;;;;;;;;;;;;;;;34.48;30.00;99824.09;1087175;47;19982;-83
2023/08/19 13:10:26;;;;;;;;;;;;;;;34.40;30.14;99822.84;1087173;54;19942;-84
2023/08/19 13:11:29;;;;;;;;;;;;;;;34.19;30.41;99828.81;1087103;47;19965;-83
2023/08/19 13:12:30;;;;;;;;;;;;;;;34.25;30.33;99823.13;1087227;47;19990;-82
2023/08/19 13:13:34;;;;;;;;;;;;;;;34.17;30.50;99824.69;1087057;46;19939;-83
2023/08/19 13:14:35;;;;;;;;;;;;;;;34.14;30.75;99831.69;1087121;54;19968;-82
2023/08/19 13:15:38;;;;;;;;;;;;;;;34.04;30.97;99827.16;1087184;54;19970;-83
2023/08/19 13:16:39;;;;;;;;;;;;;;;34.20;30.97;99826.84;1087080;54;19942;-83
2023/08/19 13:17:45;;;;;;;;;;;;;;;34.25;30.96;99826.75;1090478;31;20912;-82
2023/08/19 13:18:46;;;;;;;;;;;;;;;33.99;31.17;99835.59;1088513;39;20714;-84
2023/08/19 13:19:49;;;;;;;;;;;;;;;33.79;32.39;99825.69;1087008;47;19975;-82
2023/08/19 13:20:51;;;;;;;;;;;;;;;33.71;33.04;99830.00;1087113;54;19970;-82
2023/08/19 13:21:54;;;;;;;;;;;;;;;33.70;33.24;99839.44;1086988;47;19942;-83
2023/08/19 13:22:55;;;;;;;;;;;;;;;33.74;33.55;99839.63;1087048;54;19942;-82
2023/08/19 13:23:58;;;;;;;;;;;;;;;33.64;34.58;99845.38;1087041;54;19943;-83
2023/08/19 13:24:59;;;;;;;;;;;;;;;33.48;34.89;99844.81;1087251;54;19942;-82
2023/08/19 13:26:03;;;;;;;;;;;;;;;33.52;34.92;99837.53;1087116;54;19995;-82
2023/08/19 13:27:04;;;;;;;;;;;;;;;33.58;35.02;99836.31;1087098;54;19947;-82
2023/08/19 13:28:09;;;;;;;;;;;;;;;33.55;35.18;99836.91;1087385;54;19943;-83
2023/08/19 13:29:10;;;;;;;;;;;;;;;33.54;35.05;99838.03;1087071;47;19950;-82
2023/08/19 13:30:15;;;;;;;;;;;;;;;33.62;34.77;99839.31;1087891;31;20872;-84
2023/08/19 13:31:18;;;;;;;;;;;;;;;33.55;35.23;99842.47;1087221;54;19943;-82
2023/08/19 13:32:21;;;;;;;;;;;;;;;33.60;35.05;99845.16;1087460;39;20645;-82
2023/08/19 13:33:25;;;;;;;;;;;;;;;33.42;35.47;99844.91;1087062;54;19955;-81
2023/08/19 13:34:28;;;;;;;;;;;;;;;33.31;35.35;99837.88;1087086;54;19950;-84
2023/08/19 13:35:37;;;;;;;;;;;;;;;33.15;35.67;99847.56;1087602;54;19990;-84
2023/08/19 13:41:48;;;;;;;;;;;;;;;32.81;36.70;99852.19;1087714;54;19942;-86
2023/08/19 13:42:53;;;;;;;;;;;;;;;32.69;37.16;99849.81;1083772;54;19958;-85
2023/08/19 13:53:33;;;;;;;;;;;;;;;32.13;37.55;99865.97;1087764;54;19939;-86
2023/08/19 13:55:44;;;;;;;;;;;;;;;32.15;37.31;99872.03;1088027;54;19950;-88
2023/08/19 13:56:46;;;;;;;;;;;;;;;32.12;37.22;99869.84;1088061;54;19934;-87
2023/08/19 13:57:56;;;;;;;;;;;;;;;32.32;36.80;99877.13;1087577;47;19962;-85
2023/08/19 14:00:19;;;;;;;;;;;;;;;32.42;36.78;99873.41;1086929;39;21413;31
2023/08/19 14:01:22;;;;;;;;;;;;;;;32.53;36.50;99879.66;1083693;54;19958;-86
2023/08/19 14:02:28;;;;;;;;;;;;;;;32.46;36.18;99871.72;1085579;47;19930;31
2023/08/19 14:03:35;;;;;;;;;;;;;;;32.44;36.51;99873.94;1082966;54;19942;-87
2023/08/19 14:04:39;;;;;;;;;;;;;;;32.46;36.05;99871.72;1087706;47;19969;-84
2023/08/19 14:06:46;;;;;;;;;;;;;;;32.49;36.17;99873.91;1087786;54;19951;-85
2023/08/19 14:07:51;;;;;;;;;;;;;;;32.41;35.95;99882.81;1085803;47;19970;-86
2023/08/19 14:10:06;;;;;;;;;;;;;;;32.38;35.76;99883.44;1088188;39;20607;-84
2023/08/19 14:11:11;;;;;;;;;;;;;;;32.33;35.61;99883.47;1087579;46;19946;-85
2023/08/19 14:12:16;;;;;;;;;;;;;;;32.45;35.75;99892.19;1087517;54;19943;-87
2023/08/19 14:13:17;;;;;;;;;;;;;;;32.42;35.65;99883.66;1087499;46;20654;-85
2023/08/19 14:14:22;;;;;;;;;;;;;;;32.42;35.39;99890.00;1088772;39;20254;-86
2023/08/19 14:15:23;;;;;;;;;;;;;;;32.31;35.76;99889.31;1087304;54;20851;-85
2023/08/19 14:16:28;;;;;;;;;;;;;;;32.47;35.57;99889.13;1087325;47;20001;-86
2023/08/19 14:17:29;;;;;;;;;;;;;;;32.49;35.46;99890.50;1089430;39;20659;-87
2023/08/19 14:18:32;;;;;;;;;;;;;;;32.58;35.27;99884.31;1087518;47;20013;-86
2023/08/19 14:19:33;;;;;;;;;;;;;;;32.61;35.43;99884.53;1087425;54;19950;-84
2023/08/19 14:21:40;;;;;;;;;;;;;;;32.51;35.30;99882.69;1088031;54;19942;-85
2023/08/19 14:22:40;;;;;;;;;;;;;;;32.62;35.23;99888.09;1087693;47;19950;-89
2023/08/19 14:23:45;;;;;;;;;;;;;;;32.55;35.40;99893.19;1087334;47;19955;-85
2023/08/19 14:24:45;;;;;;;;;;;;;;;32.55;35.43;99887.66;1087529;47;19938;-86
2023/08/19 14:25:51;;;;;;;;;;;;;;;32.45;35.84;99892.19;1087269;47;19938;-86
2023/08/19 14:26:52;;;;;;;;;;;;;;;32.36;35.82;99896.72;1087726;54;20012;-86
2023/08/19 14:28:01;;;;;;;;;;;;;;;32.51;35.93;99890.19;1087554;47;19938;-84
2023/08/19 14:29:04;;;;;;;;;;;;;;;32.46;36.23;99885.53;1088344;39;20808;-87
2023/08/19 14:30:19;;;;;;;;;;;;;;;32.48;35.71;99888.84;1087371;47;19939;-84
2023/08/19 14:33:44;;;;;;;;;;;;;;;32.56;36.42;99883.78;1085792;47;19966;-88
2023/08/19 14:34:48;;;;;;;;;;;;;;;32.47;36.12;99886.34;1087827;54;19973;-85
2023/08/19 14:35:51;;;;;;;;;;;;;;;32.44;36.52;99886.97;1088232;46;19953;-85
2023/08/19 14:41:42;;;;;;;;;;;;;;;32.35;36.88;99895.88;1083798;54;19946;31
2023/08/19 14:42:48;;;;;;;;;;;;;;;32.34;37.32;99904.50;1087077;47;19939;-85
2023/08/19 14:43:53;;;;;;;;;;;;;;;32.15;37.34;99896.94;1087113;54;19949;-86
2023/08/19 14:46:41;;;;;;;;;;;;;;;31.98;37.24;99904.84;1087230;54;19935;-85
2023/08/19 14:48:18;;;;;;;;;;;;;;;;;;;;;
2023/08/19 14:49:29;;;;;;;;;;;;;;;31.77;38.10;99910.56;1087219;47;21263;-85
2023/08/19 14:50:30;;;;;;;;;;;;;;;31.90;38.09;99911.81;1087262;54;19942;-86
2023/08/19 14:53:54;;;;;;;;;;;;;;;31.95;37.55;99909.03;1087559;54;19938;-83
2023/08/19 14:54:55;;;;;;;;;;;;;;;31.94;37.73;99906.53;1087508;54;20014;-84
2023/08/19 14:55:58;;;;;;;;;;;;;;;31.83;38.08;99905.81;1087447;54;20670;-84
2023/08/19 14:56:59;;;;;;;;;;;;;;;31.78;38.17;99908.66;1087495;54;19950;-84
2023/08/19 14:58:05;;;;;;;;;;;;;;;31.84;37.82;99902.75;1087468;54;19949;-85
2023/08/19 14:59:07;;;;;;;;;;;;;;;31.85;37.82;99907.16;1088576;39;20819;-85
2023/08/19 15:00:10;;;;;;;;;;;;;;;31.91;37.64;99912.66;1086940;47;19939;-83
2023/08/19 15:01:14;;;;;;;;;;;;;;;31.95;37.66;99911.78;1087044;54;19950;-82
2023/08/19 15:02:15;;;;;;;;;;;;;;;31.94;37.69;99912.06;1086975;47;19945;-83
2023/08/19 15:03:18;;;;;;;;;;;;;;;31.96;37.52;99915.38;1086987;54;20018;-83
2023/08/19 15:04:19;;;;;;;;;;;;;;;31.94;38.40;99914.81;1087647;31;20892;-84
2023/08/19 15:05:20;;;;;;;;;;;;;;;31.84;38.26;99911.03;1086913;47;19938;-83
2023/08/19 15:06:23;;;;;;;;;;;;;;;31.86;38.32;99911.59;1087042;46;19980;-83
2023/08/19 15:07:24;;;;;;;;;;;;;;;31.85;38.19;99921.00;1086949;46;19963;-82
2023/08/19 15:08:28;;;;;;;;;;;;;;;31.87;38.72;99924.28;1086916;54;19968;-83
2023/08/19 15:09:29;;;;;;;;;;;;;;;31.92;38.52;99920.66;1087822;39;20583;-84
2023/08/19 15:10:32;;;;;;;;;;;;;;;31.91;38.36;99920.97;1086906;54;20671;-83
2023/08/19 15:11:39;;;;;;;;;;;;;;;31.81;38.25;99914.41;1089693;39;20721;-85
2023/08/19 15:12:42;;;;;;;;;;;;;;;31.85;38.37;99921.00;1087052;54;20697;-83
2023/08/19 15:13:46;;;;;;;;;;;;;;;31.87;38.44;99913.25;1087037;54;19942;-83
2023/08/19 15:14:49;;;;;;;;;;;;;;;31.80;38.41;99918.28;1089442;39;20720;-85
2023/08/19 15:15:50;;;;;;;;;;;;;;;31.57;38.72;99917.06;1086974;47;19950;-84
2023/08/19 15:16:54;;;;;;;;;;;;;;;31.51;38.88;99913.53;1086884;47;19960;-84
2023/08/19 15:17:54;;;;;;;;;;;;;;;31.41;38.74;99921.88;1086995;54;19942;-84